createdAt,value
2022-09-28T00:01:25.026Z,97050.38
2022-09-28T00:03:54.676Z,97060.53
2022-09-28T00:06:24.908Z,97057.47
2022-09-28T00:08:51.881Z,97060.75
2022-09-28T00:11:20.781Z,97052.00
2022-09-28T00:13:52.338Z,97042.03
2022-09-28T00:16:22.020Z,97049.94
2022-09-28T00:18:51.175Z,97044.19
2022-09-28T00:21:22.616Z,97040.13
2022-09-28T00:24:08.131Z,97032.25
2022-09-28T00:26:34.694Z,97024.25
2022-09-28T00:29:02.654Z,97027.44
2022-09-28T00:31:32.773Z,97028.41
2022-09-28T00:34:01.112Z,97019.16
2022-09-28T00:36:29.690Z,97025.84
2022-09-28T00:38:57.044Z,97022.16
2022-09-28T00:41:25.808Z,97018.41
2022-09-28T00:43:53.530Z,97029.97
2022-09-28T00:46:31.898Z,97024.25
2022-09-28T00:49:04.150Z,97035.00
2022-09-28T00:51:32.043Z,97032.72
2022-09-28T00:54:01.197Z,97038.47
2022-09-28T00:56:31.216Z,97042.19
2022-09-28T00:58:59.880Z,97032.94
2022-09-28T01:01:28.238Z,97041.69
2022-09-28T01:03:55.093Z,97034.16
2022-09-28T01:06:27.805Z,97028.69
2022-09-28T01:09:00.384Z,97036.56
2022-09-28T01:11:27.796Z,97032.03
2022-09-28T01:13:57.629Z,97027.97
2022-09-28T01:16:31.252Z,97029.97
2022-09-28T01:19:28.496Z,97037.13
2022-09-28T01:22:16.966Z,97033.91
2022-09-28T01:24:47.602Z,97021.03
2022-09-28T01:27:14.138Z,97016.00
2022-09-28T01:29:46.202Z,97019.72
2022-09-28T01:32:38.399Z,97018.63
2022-09-28T01:35:15.285Z,97020.13
2022-09-28T01:37:56.894Z,97017.69
2022-09-28T01:40:26.494Z,97017.09
2022-09-28T01:43:04.301Z,97008.84
2022-09-28T01:45:43.532Z,97009.59
2022-09-28T01:48:13.995Z,97002.34
2022-09-28T01:50:43.910Z,97001.69
2022-09-28T01:53:17.373Z,96995.00
2022-09-28T01:55:50.324Z,96997.88
2022-09-28T01:58:26.861Z,96990.41
2022-09-28T02:00:59.502Z,96976.06
2022-09-28T02:03:35.028Z,96981.84
2022-09-28T02:06:08.337Z,96982.34
2022-09-28T02:08:49.305Z,96981.72
2022-09-28T02:11:24.492Z,96984.53
2022-09-28T02:13:58.984Z,96986.63
2022-09-28T02:16:31.727Z,96989.44
2022-09-28T02:18:58.854Z,96980.97
2022-09-28T02:21:31.688Z,96978.47
2022-09-28T02:24:03.780Z,96987.34
2022-09-28T02:26:34.788Z,96992.78
2022-09-28T02:29:01.611Z,96993.44
2022-09-28T02:31:28.374Z,96993.34
2022-09-28T02:33:57.522Z,96983.75
2022-09-28T02:36:26.633Z,96997.53
2022-09-28T02:38:54.185Z,97003.38
2022-09-28T02:41:49.968Z,96998.78
2022-09-28T02:44:48.511Z,96992.16
2022-09-28T02:47:16.026Z,96986.56
2022-09-28T02:49:42.559Z,96986.22
2022-09-28T02:52:24.467Z,96991.34
2022-09-28T02:55:13.074Z,96985.94
2022-09-28T02:58:12.870Z,96972.81
2022-09-28T03:00:55.900Z,96976.88
2022-09-28T03:03:31.346Z,96969.22
2022-09-28T03:06:03.868Z,96963.38
2022-09-28T03:08:37.646Z,96952.81
2022-09-28T03:11:09.736Z,96952.88
2022-09-28T03:13:37.168Z,96930.13
2022-09-28T03:16:14.107Z,96926.88
2022-09-28T03:18:41.302Z,96926.75
2022-09-28T03:21:11.099Z,96920.69
2022-09-28T03:23:38.097Z,96919.59
2022-09-28T03:26:04.905Z,96917.91
2022-09-28T03:28:31.469Z,96912.22
2022-09-28T03:30:58.075Z,96911.59
2022-09-28T03:33:24.746Z,96911.09
2022-09-28T03:35:52.149Z,96899.78
2022-09-28T03:38:19.500Z,96902.50
2022-09-28T03:40:56.326Z,96902.22
2022-09-28T03:43:24.068Z,96900.06
2022-09-28T03:45:56.511Z,96892.31
2022-09-28T03:48:27.732Z,96889.88
2022-09-28T03:51:00.358Z,96880.06
2022-09-28T03:53:27.415Z,96877.91
2022-09-28T03:55:53.977Z,96877.78
2022-09-28T03:58:21.047Z,96880.25
2022-09-28T04:00:49.887Z,96878.16
2022-09-28T04:03:16.478Z,96867.63
2022-09-28T04:05:52.126Z,96862.09
2022-09-28T04:08:19.406Z,96863.38
2022-09-28T04:10:46.198Z,96863.50
2022-09-28T04:13:13.351Z,96850.50
2022-09-28T04:15:40.209Z,96839.69
2022-09-28T04:18:11.345Z,96829.72
2022-09-28T04:20:40.950Z,96829.72
2022-09-28T04:23:07.655Z,96825.06
2022-09-28T04:25:34.278Z,96818.69
2022-09-28T04:28:16.174Z,96818.75
2022-09-28T04:30:42.717Z,96812.47
2022-09-28T04:33:09.285Z,96812.38
2022-09-28T04:35:36.601Z,96808.56
2022-09-28T04:38:03.176Z,96805.41
2022-09-28T04:40:29.798Z,96809.13
2022-09-28T04:42:57.081Z,96799.19
2022-09-28T04:45:26.280Z,96803.72
2022-09-28T04:47:53.159Z,96803.16
2022-09-28T04:50:19.755Z,96798.97
2022-09-28T04:52:46.314Z,96800.78
2022-09-28T04:55:13.711Z,96808.63
2022-09-28T04:57:40.729Z,96803.97
2022-09-28T05:00:08.734Z,96800.84
2022-09-28T05:02:35.572Z,96804.78
2022-09-28T05:05:02.272Z,96802.69
2022-09-28T05:07:29.457Z,96794.53
2022-09-28T05:09:56.014Z,96784.53
2022-09-28T05:12:22.687Z,96774.53
2022-09-28T05:14:49.243Z,96765.59
2022-09-28T05:17:15.882Z,96769.59
2022-09-28T05:19:43.036Z,96761.41
2022-09-28T05:22:14.738Z,96757.75
2022-09-28T05:24:41.640Z,96760.59
2022-09-28T05:27:08.349Z,96758.53
2022-09-28T05:29:34.971Z,96754.84
2022-09-28T05:32:01.853Z,96741.47
2022-09-28T05:34:29.067Z,96739.88
2022-09-28T05:36:55.698Z,96739.69
2022-09-28T05:39:22.339Z,96726.53
2022-09-28T05:41:49.909Z,96727.38
2022-09-28T05:44:16.664Z,96721.06
2022-09-28T05:46:43.330Z,96720.81
2022-09-28T05:49:09.940Z,96706.31
2022-09-28T05:51:36.642Z,96699.44
2022-09-28T05:54:14.928Z,96696.84
2022-09-28T05:56:41.628Z,96690.53
2022-09-28T05:59:08.286Z,96686.59
2022-09-28T06:01:34.883Z,96694.00
2022-09-28T06:04:01.637Z,96703.25
2022-09-28T06:06:28.351Z,96698.00
2022-09-28T06:08:58.104Z,96697.00
2022-09-28T06:11:28.143Z,96692.25
2022-09-28T06:13:55.698Z,96690.72
2022-09-28T06:16:22.360Z,96677.53
2022-09-28T06:18:48.966Z,96682.56
2022-09-28T06:21:15.764Z,96687.34
2022-09-28T06:23:46.865Z,96685.47
2022-09-28T06:26:16.860Z,96680.75
2022-09-28T06:28:43.513Z,96682.34
2022-09-28T06:31:10.335Z,96690.28
2022-09-28T06:33:38.615Z,96696.34
2022-09-28T06:36:05.275Z,96689.75
2022-09-28T06:38:31.861Z,96680.78
2022-09-28T06:40:58.937Z,96686.91
2022-09-28T06:43:25.731Z,96690.63
2022-09-28T06:45:53.801Z,96689.34
2022-09-28T06:48:20.535Z,96687.25
2022-09-28T06:50:47.554Z,96690.47
2022-09-28T06:53:14.951Z,96682.84
2022-09-28T06:55:43.969Z,96684.97
2022-09-28T06:58:12.964Z,96687.91
2022-09-28T07:00:40.473Z,96683.97
2022-09-28T07:03:11.217Z,96670.50
2022-09-28T07:05:41.674Z,96665.75
2022-09-28T07:08:08.332Z,96668.13
2022-09-28T07:10:35.216Z,96670.53
2022-09-28T07:13:04.752Z,96677.41
2022-09-28T07:15:32.257Z,96673.72
2022-09-28T07:18:03.042Z,96672.69
2022-09-28T07:20:30.418Z,96665.03
2022-09-28T07:23:11.072Z,96668.75
2022-09-28T07:25:52.933Z,96652.38
2022-09-28T07:28:20.382Z,96656.59
2022-09-28T07:30:47.158Z,96667.47
2022-09-28T07:33:16.009Z,96666.94
2022-09-28T07:35:52.234Z,96659.53
2022-09-28T07:38:19.042Z,96651.09
2022-09-28T07:41:01.000Z,96655.06
2022-09-28T07:43:27.694Z,96655.88
2022-09-28T07:45:54.874Z,96655.63
2022-09-28T07:48:22.632Z,96643.72
2022-09-28T07:50:51.833Z,96649.03
2022-09-28T07:53:19.413Z,96649.53
2022-09-28T07:56:07.208Z,96652.47
2022-09-28T07:58:36.037Z,96658.81
2022-09-28T08:01:06.745Z,96658.28
2022-09-28T08:03:35.073Z,96668.63
2022-09-28T08:06:04.245Z,96656.19
2022-09-28T08:08:32.988Z,96647.72
2022-09-28T08:10:59.603Z,96650.66
2022-09-28T08:13:27.222Z,96650.66
2022-09-28T08:15:54.171Z,96674.22
2022-09-28T08:18:21.534Z,96669.69
2022-09-28T08:21:06.603Z,96671.28
2022-09-28T08:23:34.297Z,96672.06
2022-09-28T08:26:00.895Z,96681.59
2022-09-28T08:28:27.525Z,96667.06
2022-09-28T08:30:54.458Z,96666.50
2022-09-28T08:33:21.681Z,96681.34
2022-09-28T08:35:55.095Z,96683.19
2022-09-28T08:38:21.784Z,96676.31
2022-09-28T08:41:02.953Z,96664.41
2022-09-28T08:43:49.466Z,96672.34
2022-09-28T08:46:22.684Z,96669.44
2022-09-28T08:49:24.288Z,96663.31
2022-09-28T08:51:51.449Z,96670.75
2022-09-28T08:54:25.654Z,96680.78
2022-09-28T08:56:55.640Z,96669.66
2022-09-28T08:59:27.063Z,96674.88
2022-09-28T09:02:01.140Z,96669.34
2022-09-28T09:04:28.019Z,96663.22
2022-09-28T09:07:10.796Z,96664.03
2022-09-28T09:09:47.650Z,96659.81
2022-09-28T09:12:28.674Z,96663.41
2022-09-28T09:15:25.802Z,96667.28
2022-09-28T09:18:16.619Z,96646.09
2022-09-28T09:20:51.816Z,96654.53
2022-09-28T09:23:26.114Z,96669.81
2022-09-28T09:25:57.293Z,96662.56
2022-09-28T09:28:33.172Z,96651.50
2022-09-28T09:31:19.565Z,96657.34
2022-09-28T09:34:06.851Z,96666.22
2022-09-28T09:36:42.510Z,96661.50
2022-09-28T09:39:28.022Z,96669.19
2022-09-28T09:42:09.787Z,96667.06
2022-09-28T09:45:03.500Z,96689.75
2022-09-28T09:47:37.741Z,96689.28
2022-09-28T09:50:34.834Z,96672.38
2022-09-28T09:53:06.853Z,96667.16
2022-09-28T09:55:40.666Z,96686.25
2022-09-28T09:58:25.958Z,96682.88
2022-09-28T10:00:55.282Z,96687.59
2022-09-28T10:03:27.193Z,96701.63
2022-09-28T10:06:01.762Z,96705.00
2022-09-28T10:08:29.272Z,96701.63
2022-09-28T10:11:17.091Z,96703.78
2022-09-28T10:13:48.768Z,96702.44
2022-09-28T10:16:18.617Z,96723.03
2022-09-28T10:18:45.555Z,96727.03
2022-09-28T10:21:14.627Z,96721.22
2022-09-28T10:23:42.542Z,96721.16
2022-09-28T10:26:15.757Z,96721.38
2022-09-28T10:28:50.593Z,96729.56
2022-09-28T10:31:48.758Z,96712.78
2022-09-28T10:34:18.842Z,96718.69
2022-09-28T10:37:01.810Z,96718.25
2022-09-28T10:39:30.517Z,96713.50
2022-09-28T10:41:59.840Z,96716.75
2022-09-28T10:44:27.219Z,96704.75
2022-09-28T10:47:03.873Z,96698.34
2022-09-28T10:49:46.735Z,96682.63
2022-09-28T10:52:46.273Z,96680.94
2022-09-28T10:55:30.541Z,96681.47
2022-09-28T10:57:57.319Z,96670.16
2022-09-28T11:00:40.504Z,96671.53
2022-09-28T11:03:20.154Z,96675.69
2022-09-28T11:05:54.886Z,96680.03
2022-09-28T11:08:28.331Z,96684.03
2022-09-28T11:11:06.842Z,96681.06
2022-09-28T11:13:41.397Z,96681.97
2022-09-28T11:16:08.567Z,96682.78
2022-09-28T11:18:35.154Z,96680.78
2022-09-28T11:21:18.705Z,96678.56
2022-09-28T11:24:05.895Z,96675.91
2022-09-28T11:26:40.773Z,96674.19
2022-09-28T11:29:21.013Z,96682.47
2022-09-28T11:31:47.902Z,96665.16
2022-09-28T11:34:31.096Z,96666.78
2022-09-28T11:37:36.312Z,96667.75
2022-09-28T11:40:15.790Z,96672.47
2022-09-28T11:43:02.476Z,96674.66
2022-09-28T11:45:48.996Z,96675.81
2022-09-28T11:48:21.821Z,96669.13
2022-09-28T11:50:54.719Z,96651.94
2022-09-28T11:53:38.990Z,96668.13
2022-09-28T11:56:16.309Z,96679.19
2022-09-28T11:58:49.000Z,96666.19
2022-09-28T12:01:35.665Z,96664.19
2022-09-28T12:04:14.891Z,96659.09
2022-09-28T12:06:50.975Z,96668.44
2022-09-28T12:09:25.082Z,96654.69
2022-09-28T12:11:57.784Z,96657.91
2022-09-28T12:14:33.503Z,96662.88
2022-09-28T12:17:09.674Z,96662.59
2022-09-28T12:19:48.743Z,96650.50
2022-09-28T12:22:22.141Z,96644.31
2022-09-28T12:24:52.926Z,96645.91
2022-09-28T12:27:41.574Z,96655.31
2022-09-28T12:30:19.840Z,96661.38
2022-09-28T12:33:04.688Z,96654.69
2022-09-28T12:35:47.419Z,96648.56
2022-09-28T12:38:13.967Z,96651.16
2022-09-28T12:40:49.637Z,96648.16
2022-09-28T12:43:37.225Z,96647.91
2022-09-28T12:46:12.619Z,96651.06
2022-09-28T12:49:36.742Z,96648.75
2022-09-28T12:52:00.310Z,96656.63
2022-09-28T12:54:53.290Z,96655.31
2022-09-28T12:57:45.947Z,96668.94
2022-09-28T13:00:15.927Z,96663.03
2022-09-28T13:03:10.900Z,96668.47
2022-09-28T13:06:04.430Z,96660.00
2022-09-28T13:08:57.583Z,96670.41
2022-09-28T13:11:33.204Z,96676.03
2022-09-28T13:14:34.245Z,96676.63
2022-09-28T13:17:25.712Z,96674.44
2022-09-28T13:19:59.900Z,96680.47
2022-09-28T13:22:49.943Z,96680.06
2022-09-28T13:25:20.726Z,96667.28
2022-09-28T13:27:53.719Z,96677.34
2022-09-28T13:30:20.586Z,96676.03
2022-09-28T13:32:49.907Z,96681.34
2022-09-28T13:35:20.299Z,96688.84
2022-09-28T13:37:47.866Z,96694.81
2022-09-28T13:40:14.694Z,96695.63
2022-09-28T13:43:06.821Z,96701.56
2022-09-28T13:45:49.334Z,96717.28
2022-09-28T13:48:22.211Z,96720.34
2022-09-28T13:51:18.402Z,96720.47
2022-09-28T13:54:06.856Z,96725.06
2022-09-28T13:56:34.979Z,96736.31
2022-09-28T13:59:19.803Z,96730.28
2022-09-28T14:02:14.013Z,96735.59
2022-09-28T14:05:01.838Z,96739.38
2022-09-28T14:08:03.570Z,96732.31
2022-09-28T14:10:54.164Z,96734.94
2022-09-28T14:13:59.426Z,96735.28
2022-09-28T14:16:31.187Z,96731.75
2022-09-28T14:19:00.106Z,96735.22
2022-09-28T14:21:50.276Z,96743.75
2022-09-28T14:24:38.657Z,96738.38
2022-09-28T14:27:25.103Z,96732.94
2022-09-28T14:30:06.485Z,96731.03
2022-09-28T14:32:37.038Z,96726.56
2022-09-28T14:35:06.137Z,96715.41
2022-09-28T14:37:52.948Z,96720.38
2022-09-28T14:40:36.840Z,96723.91
2022-09-28T14:43:24.124Z,96727.06
2022-09-28T14:45:54.559Z,96726.78
2022-09-28T14:48:43.139Z,96725.41
2022-09-28T14:51:25.113Z,96725.25
2022-09-28T14:53:55.846Z,96726.72
2022-09-28T14:56:22.570Z,96722.31
2022-09-28T14:58:58.780Z,96732.81
2022-09-28T15:01:26.478Z,96725.78
2022-09-28T15:04:00.399Z,96726.69
2022-09-28T15:06:43.687Z,96729.09
2022-09-28T15:09:29.366Z,96736.88
2022-09-28T15:12:02.779Z,96747.59
2022-09-28T15:14:31.961Z,96757.66
2022-09-28T15:17:03.831Z,96757.03
2022-09-28T15:19:40.058Z,96758.00
2022-09-28T15:22:16.110Z,96762.44
2022-09-28T15:24:53.562Z,96769.91
2022-09-28T15:27:20.223Z,96771.31
2022-09-28T15:29:57.869Z,96777.94
2022-09-28T15:32:26.962Z,96771.31
2022-09-28T15:34:54.679Z,96766.25
2022-09-28T15:37:22.835Z,96769.72
2022-09-28T15:39:51.493Z,96770.88
2022-09-28T15:42:18.800Z,96776.78
2022-09-28T15:45:02.650Z,96779.94
2022-09-28T15:47:31.880Z,96785.47
2022-09-28T15:50:00.315Z,96784.44
2022-09-28T15:52:29.129Z,96783.16
2022-09-28T15:54:57.347Z,96784.44
2022-09-28T15:57:40.110Z,96778.41
2022-09-28T16:00:22.102Z,96778.69
2022-09-28T16:03:23.965Z,96776.88
2022-09-28T16:06:10.197Z,96774.47
2022-09-28T16:08:36.728Z,96774.50
2022-09-28T16:11:18.707Z,96776.38
2022-09-28T16:13:57.766Z,96780.47
2022-09-28T16:16:29.925Z,96789.34
2022-09-28T16:19:00.619Z,96786.41
2022-09-28T16:21:40.418Z,96782.19
2022-09-28T16:24:08.527Z,96784.88
2022-09-28T16:26:38.954Z,96780.16
2022-09-28T16:29:25.753Z,96779.09
2022-09-28T16:31:53.174Z,96782.53
2022-09-28T16:34:23.676Z,96789.44
2022-09-28T16:36:50.658Z,96807.50
2022-09-28T16:39:19.152Z,96809.09
2022-09-28T16:41:51.717Z,96804.06
2022-09-28T16:44:28.447Z,96810.97
2022-09-28T16:46:57.722Z,96812.03
2022-09-28T16:49:25.584Z,96818.66
2022-09-28T16:51:52.858Z,96824.25
2022-09-28T16:54:37.754Z,96837.00
2022-09-28T16:57:07.122Z,96833.53
2022-09-28T16:59:33.806Z,96823.75
2022-09-28T17:02:00.546Z,96821.09
2022-09-28T17:04:27.203Z,96843.09
2022-09-28T17:06:55.506Z,96842.06
2022-09-28T17:09:22.852Z,96847.38
2022-09-28T17:11:55.503Z,96848.44
2022-09-28T17:14:23.434Z,96852.94
2022-09-28T17:17:11.561Z,96860.63
2022-09-28T17:19:40.197Z,96857.72
2022-09-28T17:22:08.072Z,96865.91
2022-09-28T17:24:35.143Z,96861.44
2022-09-28T17:27:03.224Z,96854.53
2022-09-28T17:29:30.262Z,96853.50
2022-09-28T17:31:56.830Z,96855.88
2022-09-28T17:34:23.831Z,96863.53
2022-09-28T17:36:50.383Z,96863.53
2022-09-28T17:39:19.053Z,96860.66
2022-09-28T17:41:45.933Z,96865.41
2022-09-28T17:44:16.266Z,96869.38
2022-09-28T17:46:47.596Z,96872.59
2022-09-28T17:49:14.492Z,96878.94
2022-09-28T17:51:41.428Z,96876.28
2022-09-28T17:54:08.637Z,96889.81
2022-09-28T17:56:36.081Z,96887.69
2022-09-28T17:59:06.611Z,96890.59
2022-09-28T18:01:34.651Z,96900.94
2022-09-28T18:04:03.829Z,96897.50
2022-09-28T18:06:33.622Z,96886.88
2022-09-28T18:09:02.756Z,96890.59
2022-09-28T18:11:31.128Z,96886.34
2022-09-28T18:14:01.063Z,96886.06
2022-09-28T18:16:28.998Z,96888.44
2022-09-28T18:18:55.796Z,96890.31
2022-09-28T18:21:22.407Z,96880.22
2022-09-28T18:23:49.047Z,96876.25
2022-09-28T18:26:16.724Z,96883.13
2022-09-28T18:28:43.397Z,96889.50
2022-09-28T18:31:12.506Z,96895.06
2022-09-28T18:33:51.608Z,96895.59
2022-09-28T18:36:18.189Z,96902.47
2022-09-28T18:38:44.775Z,96900.59
2022-09-28T18:41:15.820Z,96909.09
2022-09-28T18:43:50.271Z,96891.34
2022-09-28T18:46:18.560Z,96901.16
2022-09-28T18:48:46.337Z,96901.94
2022-09-28T18:51:13.348Z,96898.50
2022-09-28T18:53:40.529Z,96908.03
2022-09-28T18:56:09.309Z,96907.47
2022-09-28T18:58:37.655Z,96904.31
2022-09-28T19:01:28.986Z,96911.47
2022-09-28T19:03:59.316Z,96906.16
2022-09-28T19:06:26.995Z,96906.91
2022-09-28T19:08:55.657Z,96905.31
2022-09-28T19:11:22.678Z,96896.84
2022-09-28T19:13:49.372Z,96899.22
2022-09-28T19:16:18.715Z,96898.38
2022-09-28T19:18:45.515Z,96908.72
2022-09-28T19:21:14.197Z,96903.97
2022-09-28T19:23:45.818Z,96904.22
2022-09-28T19:26:18.303Z,96909.81
2022-09-28T19:28:44.953Z,96922.00
2022-09-28T19:31:11.631Z,96923.31
2022-09-28T19:33:39.894Z,96923.31
2022-09-28T19:36:07.994Z,96928.59
2022-09-28T19:38:37.382Z,96923.31
2022-09-28T19:41:39.025Z,96925.94
2022-09-28T19:44:11.103Z,96930.69
2022-09-28T19:46:39.337Z,96925.41
2022-09-28T19:49:09.589Z,96933.34
2022-09-28T19:51:46.974Z,96929.88
2022-09-28T19:54:26.527Z,96931.75
2022-09-28T19:56:53.565Z,96935.19
2022-09-28T19:59:21.217Z,96931.50
2022-09-28T20:01:48.806Z,96931.22
2022-09-28T20:04:16.065Z,96931.72
2022-09-28T20:06:42.806Z,96926.44
2022-09-28T20:09:09.475Z,96929.88
2022-09-28T20:11:36.264Z,96941.53
2022-09-28T20:14:06.555Z,96942.59
2022-09-28T20:16:37.220Z,96939.16
2022-09-28T20:19:04.890Z,96943.41
2022-09-28T20:21:31.558Z,96948.69
2022-09-28T20:23:58.204Z,96958.72
2022-09-28T20:26:26.895Z,96962.66
2022-09-28T20:28:54.445Z,96961.56
2022-09-28T20:31:24.698Z,96967.34
2022-09-28T20:33:52.058Z,96958.59
2022-09-28T20:36:21.513Z,96957.28
2022-09-28T20:38:50.065Z,96963.59
2022-09-28T20:41:19.412Z,96970.25
2022-09-28T20:43:46.786Z,96975.03
2022-09-28T20:46:14.503Z,96978.16
2022-09-28T20:48:41.126Z,96982.16
2022-09-28T20:51:12.195Z,96984.06
2022-09-28T20:53:40.042Z,96983.72
2022-09-28T20:56:08.197Z,96980.78
2022-09-28T20:58:35.019Z,96992.69
2022-09-28T21:01:07.899Z,96981.34
2022-09-28T21:03:35.961Z,97005.19
2022-09-28T21:06:06.618Z,97014.69
2022-09-28T21:08:35.327Z,97018.41
2022-09-28T21:11:02.147Z,97022.09
2022-09-28T21:13:28.728Z,97029.75
2022-09-28T21:15:55.335Z,97030.84
2022-09-28T21:18:22.649Z,97029.22
2022-09-28T21:20:51.423Z,97027.88
2022-09-28T21:23:23.947Z,97027.31
2022-09-28T21:26:01.468Z,97031.03
2022-09-28T21:28:28.053Z,97033.69
2022-09-28T21:30:54.683Z,97031.53
2022-09-28T21:33:21.516Z,97035.53
2022-09-28T21:35:48.105Z,97034.44
2022-09-28T21:38:14.707Z,97038.94
2022-09-28T21:40:41.925Z,97040.25
2022-09-28T21:43:08.727Z,97032.56
2022-09-28T21:45:35.341Z,97031.75
2022-09-28T21:48:01.938Z,97037.91
2022-09-28T21:50:28.707Z,97041.31
2022-09-28T21:52:56.259Z,97049.53
2022-09-28T21:55:23.874Z,97047.66
2022-09-28T21:57:51.368Z,97051.34
2022-09-28T22:00:25.138Z,97054.25
2022-09-28T22:02:51.913Z,97046.84
2022-09-28T22:05:19.264Z,97052.91
2022-09-28T22:07:46.058Z,97056.34
2022-09-28T22:10:14.540Z,97057.13
2022-09-28T22:12:41.313Z,97061.56
2022-09-28T22:15:08.532Z,97050.13
2022-09-28T22:17:35.129Z,97055.16
2022-09-28T22:20:01.689Z,97056.19
2022-09-28T22:22:29.303Z,97059.63
2022-09-28T22:24:56.189Z,97061.44
2022-09-28T22:27:24.016Z,97064.38
2022-09-28T22:29:51.117Z,97065.94
2022-09-28T22:32:17.741Z,97059.56
2022-09-28T22:34:44.297Z,97065.13
2022-09-28T22:37:10.871Z,97073.91
2022-09-28T22:39:37.975Z,97076.78
2022-09-28T22:42:04.857Z,97070.19
2022-09-28T22:44:31.456Z,97071.75
2022-09-28T22:46:58.089Z,97063.34
2022-09-28T22:49:24.667Z,97054.53
2022-09-28T22:51:51.824Z,97053.75
2022-09-28T22:54:18.458Z,97063.78
2022-09-28T22:56:45.179Z,97063.81
2022-09-28T22:59:12.003Z,97060.09
2022-09-28T23:01:38.939Z,97059.56
2022-09-28T23:04:06.161Z,97060.59
2022-09-28T23:06:33.260Z,97063.53
2022-09-28T23:09:00.736Z,97070.13
2022-09-28T23:11:28.786Z,97060.69
2022-09-28T23:13:57.636Z,97067.22
2022-09-28T23:16:25.891Z,97065.94
2022-09-28T23:18:54.950Z,97071.22
2022-09-28T23:21:23.956Z,97078.09
2022-09-28T23:23:54.471Z,97082.22
2022-09-28T23:26:24.865Z,97086.31
2022-09-28T23:28:56.744Z,97083.09
2022-09-28T23:31:25.959Z,97078.84
2022-09-28T23:33:59.291Z,97084.09
2022-09-28T23:36:26.576Z,97090.00
2022-09-28T23:38:53.298Z,97085.75
2022-09-28T23:41:19.930Z,97087.34
2022-09-28T23:43:46.613Z,97082.00
2022-09-28T23:46:16.222Z,97080.91
2022-09-28T23:48:49.524Z,97080.91
2022-09-28T23:51:16.113Z,97082.22
2022-09-28T23:53:43.328Z,97095.91
2022-09-28T23:56:09.950Z,97098.53
2022-09-28T23:58:36.533Z,97100.16
